San Marcos, CA (92078)

12:59 AM PDT on September 03, 2014 (GMT -0700)
Twin Oaks | Change Station
CLOSE
Current Station
Personal Weather Station
Location: San Marcos, CA
Elevation: 655 ft
Nearby Weather Stations

Elev 655 ft 33.15 °N, 117.16 °W | Updated 38 seconds ago

Overcast
Overcast
68.2 °F
Feels Like 68.2 °F
N
0.0
Wind Variable Wind from SSW
Gusts 0.0 mph

Today
High -- | Low -- °F
--% Chance of Precip.
Yesterday
High -- | Low -- °F
Precip. -- in
6:24 AM 7:10 PM
First Quarter, 60% visible
Pressure 29.80 in
Visibility 10.0 miles
Clouds Overcast 1400 ft
Dew Point 64 °F
Humidity 88%
Rainfall 0.00 in
Snow Depth Not available.
UV 0 out of 12
Pollen 7.80 out of 12
Ozone Good
PM2.5 Good
Flu Activity Not available.
METAR KCRQ 030753Z AUTO 11003KT 10SM OVC014 21/17 A2981 RMK AO2 SLP090 T02110172 402500200

More Conditions Fewer Conditions

Pressure 29.80 in
Visibility 10.0 miles
Clouds Overcast 1400 ft
Dew Point 64 °F
Humidity 88%
Rainfall 0.00 in
Snow Depth Not available.
UV 0 out of 12
Pollen 7.80 out of 12
Ozone Good
PM2.5 Good
Flu Activity Not available.
METAR KCRQ 030753Z AUTO 11003KT 10SM OVC014 21/17 A2981 RMK AO2 SLP090 T02110172 402500200

More Conditions Fewer Conditions

10-Day Weather Forecast

Almanac

Astronomy

Sep. 03, 2014 Rise Set
Actual Time 6:24 AM PDT 7:10 PM PDT
Civil Twilight 5:59 AM PDT 7:36 PM PDT
Nautical Twilight 5:29 AM PDT 8:05 PM PDT
Astronomical Twilight 4:59 AM PDT 8:36 PM PDT
Moon 2:47 PM PDT 12:32 AM PDT
Length of Visible Light 13h 36m
Length of Day
12h 46m
Tomorrow will be 1m 58s shorter.
First Quarter, 60% of the Moon is Illuminated
Today
First Quarter
Sep 8
Full
Sep 15
Last Quarter
Sep 24
New
Oct 1
First Quarter

Today's Extremes

State Highs State Lows

Community

WunderPhotos

Upload Photos

1,749,899 photos uploaded!

Nearby

Air Quality

  Air Quality AQ Index Pollutant
Yesterday Moderate
PM2.5
Yesterday Good
OZONE
Current Good
PM2.5
Current Good
OZONE
Tuesday Good
PM2.5
Wednesday Good
PM2.5
Wednesday Good
OZONE

Snow Depth

Station Depth Elevation
Leavitt Lake 0 in 9400 ft
Leavitt Meadows 1 in 7200 ft
Summit Meadow 1 in 9122 ft
Monitor Pass 0 in 8350 ft
Blue Lakes 0 in 8000 ft

Earthquake Activity

City Distance Mag. Time & Date
San Jacinto, California 48 miles 2.9 8:30 PM PDT
2014-09-02
San Jacinto, California 48 miles 3.7 7:38 PM PDT
2014-09-02
Holtville, California 104 miles 2.5 5:43 PM PDT
2014-09-01
Holtville, California 105 miles 2.5 5:26 PM PDT
2014-09-01
Minimum magnitude displayed is 2.5.

Coastal Water Temperatures

Place Temperature
La Jolla, CA 73.0 °F
San Diego, CA 75.9 °F

Nearby Weather Stations